sensor_id;sensor_type;location;lat;lon;timestamp;temperature;humidity
67529;DHT22;54366;51.980;5.856;2024-01-11T00:01:32;-2.00;57.10
67529;DHT22;54366;51.980;5.856;2024-01-11T00:03:59;-2.00;56.80
67529;DHT22;54366;51.980;5.856;2024-01-11T00:06:25;-2.00;56.90
67529;DHT22;54366;51.980;5.856;2024-01-11T00:08:51;-2.10;57.10
67529;DHT22;54366;51.980;5.856;2024-01-11T00:11:18;-2.10;57.70
67529;DHT22;54366;51.980;5.856;2024-01-11T00:13:44;-2.10;58.00
67529;DHT22;54366;51.980;5.856;2024-01-11T00:16:10;-2.10;58.00
67529;DHT22;54366;51.980;5.856;2024-01-11T00:18:37;-2.10;58.20
67529;DHT22;54366;51.980;5.856;2024-01-11T00:21:03;-2.10;58.40
67529;DHT22;54366;51.980;5.856;2024-01-11T00:23:29;-2.10;58.40
67529;DHT22;54366;51.980;5.856;2024-01-11T00:25:56;-2.10;58.60
67529;DHT22;54366;51.980;5.856;2024-01-11T00:28:22;-2.10;58.50
67529;DHT22;54366;51.980;5.856;2024-01-11T00:30:48;-2.10;58.40
67529;DHT22;54366;51.980;5.856;2024-01-11T00:33:15;-2.10;58.50
67529;DHT22;54366;51.980;5.856;2024-01-11T00:35:41;-2.20;58.40
67529;DHT22;54366;51.980;5.856;2024-01-11T00:38:07;-2.20;58.20
67529;DHT22;54366;51.980;5.856;2024-01-11T00:40:34;-2.20;58.10
67529;DHT22;54366;51.980;5.856;2024-01-11T00:43:00;-2.20;58.10
67529;DHT22;54366;51.980;5.856;2024-01-11T00:45:26;-2.20;58.50
67529;DHT22;54366;51.980;5.856;2024-01-11T00:47:52;-2.30;57.70
67529;DHT22;54366;51.980;5.856;2024-01-11T00:50:19;-2.30;57.90
67529;DHT22;54366;51.980;5.856;2024-01-11T00:52:45;-2.30;58.10
67529;DHT22;54366;51.980;5.856;2024-01-11T00:55:11;-2.30;58.10
67529;DHT22;54366;51.980;5.856;2024-01-11T00:57:38;-2.30;58.10
67529;DHT22;54366;51.980;5.856;2024-01-11T01:00:05;-2.30;58.20
67529;DHT22;54366;51.980;5.856;2024-01-11T01:02:31;-2.30;58.40
67529;DHT22;54366;51.980;5.856;2024-01-11T01:04:58;-2.30;58.30
67529;DHT22;54366;51.980;5.856;2024-01-11T01:07:24;-2.30;58.30
67529;DHT22;54366;51.980;5.856;2024-01-11T01:09:50;-2.30;58.40
67529;DHT22;54366;51.980;5.856;2024-01-11T01:12:16;-2.30;58.30
67529;DHT22;54366;51.980;5.856;2024-01-11T01:14:43;-2.30;58.30
67529;DHT22;54366;51.980;5.856;2024-01-11T01:17:09;-2.40;58.50
67529;DHT22;54366;51.980;5.856;2024-01-11T01:19:35;-2.40;58.90
67529;DHT22;54366;51.980;5.856;2024-01-11T01:22:02;-2.40;58.30
67529;DHT22;54366;51.980;5.856;2024-01-11T01:24:30;-2.50;58.60
67529;DHT22;54366;51.980;5.856;2024-01-11T01:26:56;-2.50;58.60
67529;DHT22;54366;51.980;5.856;2024-01-11T01:29:23;-2.50;58.60
67529;DHT22;54366;51.980;5.856;2024-01-11T01:31:49;-2.50;58.50
67529;DHT22;54366;51.980;5.856;2024-01-11T01:34:15;-2.50;58.50
67529;DHT22;54366;51.980;5.856;2024-01-11T01:36:41;-2.60;58.50
67529;DHT22;54366;51.980;5.856;2024-01-11T01:39:08;-2.60;58.50
67529;DHT22;54366;51.980;5.856;2024-01-11T01:41:34;-2.60;58.60
67529;DHT22;54366;51.980;5.856;2024-01-11T01:44:00;-2.60;58.70
67529;DHT22;54366;51.980;5.856;2024-01-11T01:46:28;-2.60;58.70
67529;DHT22;54366;51.980;5.856;2024-01-11T01:48:56;-2.70;58.70
67529;DHT22;54366;51.980;5.856;2024-01-11T01:51:24;-2.70;58.90
67529;DHT22;54366;51.980;5.856;2024-01-11T01:53:53;-2.80;58.90
67529;DHT22;54366;51.980;5.856;2024-01-11T01:56:21;-2.80;58.90
67529;DHT22;54366;51.980;5.856;2024-01-11T01:58:48;-2.90;59.30
67529;DHT22;54366;51.980;5.856;2024-01-11T02:01:16;-2.90;59.60
67529;DHT22;54366;51.980;5.856;2024-01-11T02:03:45;-2.90;59.70
67529;DHT22;54366;51.980;5.856;2024-01-11T02:06:14;-3.00;60.10
67529;DHT22;54366;51.980;5.856;2024-01-11T02:08:43;-3.00;60.30
67529;DHT22;54366;51.980;5.856;2024-01-11T02:11:11;-3.10;60.00
67529;DHT22;54366;51.980;5.856;2024-01-11T02:13:37;-3.00;60.30
67529;DHT22;54366;51.980;5.856;2024-01-11T02:16:04;-3.10;60.30
67529;DHT22;54366;51.980;5.856;2024-01-11T02:18:30;-3.10;60.20
67529;DHT22;54366;51.980;5.856;2024-01-11T02:20:57;-3.10;60.40
67529;DHT22;54366;51.980;5.856;2024-01-11T02:23:24;-3.20;60.50
67529;DHT22;54366;51.980;5.856;2024-01-11T02:25:52;-3.20;60.90
67529;DHT22;54366;51.980;5.856;2024-01-11T02:28:19;-3.20;60.90
67529;DHT22;54366;51.980;5.856;2024-01-11T02:30:45;-3.20;61.00
67529;DHT22;54366;51.980;5.856;2024-01-11T02:33:12;-3.20;61.10
67529;DHT22;54366;51.980;5.856;2024-01-11T02:35:42;-3.20;61.10
67529;DHT22;54366;51.980;5.856;2024-01-11T02:38:09;-3.20;61.20
67529;DHT22;54366;51.980;5.856;2024-01-11T02:40:37;-3.20;61.70
67529;DHT22;54366;51.980;5.856;2024-01-11T02:43:09;-3.20;61.80
67529;DHT22;54366;51.980;5.856;2024-01-11T02:45:36;-3.30;61.50
67529;DHT22;54366;51.980;5.856;2024-01-11T02:48:03;-3.30;61.60
67529;DHT22;54366;51.980;5.856;2024-01-11T02:50:29;-3.30;61.40
67529;DHT22;54366;51.980;5.856;2024-01-11T02:52:56;-3.20;61.20
67529;DHT22;54366;51.980;5.856;2024-01-11T02:55:22;-3.20;61.10
67529;DHT22;54366;51.980;5.856;2024-01-11T02:57:48;-3.20;61.00
67529;DHT22;54366;51.980;5.856;2024-01-11T03:00:15;-3.20;61.20
67529;DHT22;54366;51.980;5.856;2024-01-11T03:02:41;-3.20;61.60
67529;DHT22;54366;51.980;5.856;2024-01-11T03:05:07;-3.20;62.10
67529;DHT22;54366;51.980;5.856;2024-01-11T03:07:34;-3.20;62.20
67529;DHT22;54366;51.980;5.856;2024-01-11T03:10:00;-3.20;62.60
67529;DHT22;54366;51.980;5.856;2024-01-11T03:12:26;-3.20;62.90
67529;DHT22;54366;51.980;5.856;2024-01-11T03:14:53;-3.30;62.90
67529;DHT22;54366;51.980;5.856;2024-01-11T03:17:19;-3.10;63.10
67529;DHT22;54366;51.980;5.856;2024-01-11T03:19:45;-3.20;63.10
67529;DHT22;54366;51.980;5.856;2024-01-11T03:22:12;-3.30;62.90
67529;DHT22;54366;51.980;5.856;2024-01-11T03:24:38;-3.30;62.50
67529;DHT22;54366;51.980;5.856;2024-01-11T03:27:07;-3.30;62.50
67529;DHT22;54366;51.980;5.856;2024-01-11T03:29:33;-3.30;62.60
67529;DHT22;54366;51.980;5.856;2024-01-11T03:32:00;-3.30;62.70
67529;DHT22;54366;51.980;5.856;2024-01-11T03:34:26;-3.40;63.00
67529;DHT22;54366;51.980;5.856;2024-01-11T03:36:53;-3.40;63.20
67529;DHT22;54366;51.980;5.856;2024-01-11T03:39:19;-3.40;63.00
67529;DHT22;54366;51.980;5.856;2024-01-11T03:41:45;-3.40;62.80
67529;DHT22;54366;51.980;5.856;2024-01-11T03:44:12;-3.50;62.70
67529;DHT22;54366;51.980;5.856;2024-01-11T03:46:38;-3.50;62.60
67529;DHT22;54366;51.980;5.856;2024-01-11T03:49:04;-3.50;62.70
67529;DHT22;54366;51.980;5.856;2024-01-11T03:51:30;-3.50;63.00
67529;DHT22;54366;51.980;5.856;2024-01-11T03:53:57;-3.50;63.20
67529;DHT22;54366;51.980;5.856;2024-01-11T03:56:23;-3.50;63.50
67529;DHT22;54366;51.980;5.856;2024-01-11T03:58:49;-3.50;63.80
67529;DHT22;54366;51.980;5.856;2024-01-11T04:01:16;-3.50;64.00
67529;DHT22;54366;51.980;5.856;2024-01-11T04:03:42;-3.50;64.10
67529;DHT22;54366;51.980;5.856;2024-01-11T04:06:09;-3.50;64.30
67529;DHT22;54366;51.980;5.856;2024-01-11T04:08:35;-3.50;64.00
67529;DHT22;54366;51.980;5.856;2024-01-11T04:11:03;-3.50;64.00
67529;DHT22;54366;51.980;5.856;2024-01-11T04:13:30;-3.50;64.00
67529;DHT22;54366;51.980;5.856;2024-01-11T04:15:56;-3.60;63.90
67529;DHT22;54366;51.980;5.856;2024-01-11T04:18:23;-3.60;64.00
67529;DHT22;54366;51.980;5.856;2024-01-11T04:20:49;-3.60;63.90
67529;DHT22;54366;51.980;5.856;2024-01-11T04:23:15;-3.60;64.10
67529;DHT22;54366;51.980;5.856;2024-01-11T04:25:41;-3.60;64.00
67529;DHT22;54366;51.980;5.856;2024-01-11T04:28:08;-3.60;64.40
67529;DHT22;54366;51.980;5.856;2024-01-11T04:30:35;-3.70;64.60
67529;DHT22;54366;51.980;5.856;2024-01-11T04:33:02;-3.70;65.40
67529;DHT22;54366;51.980;5.856;2024-01-11T04:35:28;-3.80;65.50
67529;DHT22;54366;51.980;5.856;2024-01-11T04:37:54;-3.80;65.70
67529;DHT22;54366;51.980;5.856;2024-01-11T04:40:21;-3.80;65.40
67529;DHT22;54366;51.980;5.856;2024-01-11T04:42:47;-3.80;65.30
67529;DHT22;54366;51.980;5.856;2024-01-11T04:45:13;-3.80;66.10
67529;DHT22;54366;51.980;5.856;2024-01-11T04:47:40;-3.80;65.80
67529;DHT22;54366;51.980;5.856;2024-01-11T04:50:07;-3.80;65.60
67529;DHT22;54366;51.980;5.856;2024-01-11T04:52:33;-3.80;66.00
67529;DHT22;54366;51.980;5.856;2024-01-11T04:55:00;-3.90;65.80
67529;DHT22;54366;51.980;5.856;2024-01-11T04:57:26;-3.80;65.70
67529;DHT22;54366;51.980;5.856;2024-01-11T04:59:53;-3.80;65.70
67529;DHT22;54366;51.980;5.856;2024-01-11T05:02:22;-3.80;65.50
67529;DHT22;54366;51.980;5.856;2024-01-11T05:04:49;-3.80;65.40
67529;DHT22;54366;51.980;5.856;2024-01-11T05:07:15;-3.80;65.50
67529;DHT22;54366;51.980;5.856;2024-01-11T05:09:41;-3.80;65.30
67529;DHT22;54366;51.980;5.856;2024-01-11T05:12:08;-3.80;65.60
67529;DHT22;54366;51.980;5.856;2024-01-11T05:14:34;-3.80;65.50
67529;DHT22;54366;51.980;5.856;2024-01-11T05:17:00;-3.80;65.50
67529;DHT22;54366;51.980;5.856;2024-01-11T05:19:27;-3.80;65.30
67529;DHT22;54366;51.980;5.856;2024-01-11T05:21:53;-3.90;65.30
67529;DHT22;54366;51.980;5.856;2024-01-11T05:24:19;-3.80;65.90
67529;DHT22;54366;51.980;5.856;2024-01-11T05:26:46;-3.80;66.10
67529;DHT22;54366;51.980;5.856;2024-01-11T05:29:12;-3.80;66.00
67529;DHT22;54366;51.980;5.856;2024-01-11T05:31:39;-3.80;66.00
67529;DHT22;54366;51.980;5.856;2024-01-11T05:34:05;-3.80;66.70
67529;DHT22;54366;51.980;5.856;2024-01-11T05:36:31;-3.80;66.20
67529;DHT22;54366;51.980;5.856;2024-01-11T05:38:57;-3.80;66.30
67529;DHT22;54366;51.980;5.856;2024-01-11T05:41:24;-3.80;66.20
67529;DHT22;54366;51.980;5.856;2024-01-11T05:43:50;-3.70;66.20
67529;DHT22;54366;51.980;5.856;2024-01-11T05:46:16;-3.80;66.40
67529;DHT22;54366;51.980;5.856;2024-01-11T05:48:42;-3.80;66.50
67529;DHT22;54366;51.980;5.856;2024-01-11T05:51:09;-3.80;66.90
67529;DHT22;54366;51.980;5.856;2024-01-11T05:53:35;-3.80;67.00
67529;DHT22;54366;51.980;5.856;2024-01-11T05:56:06;-3.80;67.30
67529;DHT22;54366;51.980;5.856;2024-01-11T05:58:33;-3.90;67.40
67529;DHT22;54366;51.980;5.856;2024-01-11T06:00:59;-3.80;67.50
67529;DHT22;54366;51.980;5.856;2024-01-11T06:03:25;-3.80;67.70
67529;DHT22;54366;51.980;5.856;2024-01-11T06:05:51;-3.90;67.60
67529;DHT22;54366;51.980;5.856;2024-01-11T06:08:18;-3.80;67.80
67529;DHT22;54366;51.980;5.856;2024-01-11T06:10:44;-3.80;67.90
67529;DHT22;54366;51.980;5.856;2024-01-11T06:13:10;-3.80;67.90
67529;DHT22;54366;51.980;5.856;2024-01-11T06:15:37;-3.90;68.10
67529;DHT22;54366;51.980;5.856;2024-01-11T06:18:03;-3.90;68.70
67529;DHT22;54366;51.980;5.856;2024-01-11T06:20:30;-3.90;68.10
67529;DHT22;54366;51.980;5.856;2024-01-11T06:22:57;-3.90;68.00
67529;DHT22;54366;51.980;5.856;2024-01-11T06:25:23;-3.90;67.40
67529;DHT22;54366;51.980;5.856;2024-01-11T06:27:49;-3.90;67.30
67529;DHT22;54366;51.980;5.856;2024-01-11T06:30:16;-3.90;67.20
67529;DHT22;54366;51.980;5.856;2024-01-11T06:32:42;-3.90;67.40
67529;DHT22;54366;51.980;5.856;2024-01-11T06:35:09;-4.00;67.30
67529;DHT22;54366;51.980;5.856;2024-01-11T06:37:35;-4.00;67.30
67529;DHT22;54366;51.980;5.856;2024-01-11T06:40:01;-3.90;67.30
67529;DHT22;54366;51.980;5.856;2024-01-11T06:42:30;-3.90;67.20
67529;DHT22;54366;51.980;5.856;2024-01-11T06:44:57;-3.90;67.30
67529;DHT22;54366;51.980;5.856;2024-01-11T06:47:23;-3.90;67.50
67529;DHT22;54366;51.980;5.856;2024-01-11T06:49:49;-3.90;67.60
67529;DHT22;54366;51.980;5.856;2024-01-11T06:52:16;-3.90;67.80
67529;DHT22;54366;51.980;5.856;2024-01-11T06:54:42;-3.90;67.80
67529;DHT22;54366;51.980;5.856;2024-01-11T06:57:08;-3.80;67.60
67529;DHT22;54366;51.980;5.856;2024-01-11T06:59:35;-3.90;67.40
67529;DHT22;54366;51.980;5.856;2024-01-11T07:02:01;-3.80;67.30
67529;DHT22;54366;51.980;5.856;2024-01-11T07:04:27;-3.90;67.20
67529;DHT22;54366;51.980;5.856;2024-01-11T07:06:54;-3.80;68.20
67529;DHT22;54366;51.980;5.856;2024-01-11T07:09:20;-3.90;67.80
67529;DHT22;54366;51.980;5.856;2024-01-11T07:11:46;-3.90;68.00
67529;DHT22;54366;51.980;5.856;2024-01-11T07:14:13;-3.90;67.80
67529;DHT22;54366;51.980;5.856;2024-01-11T07:16:39;-3.90;67.90
67529;DHT22;54366;51.980;5.856;2024-01-11T07:19:05;-3.90;68.20
67529;DHT22;54366;51.980;5.856;2024-01-11T07:21:32;-3.90;68.10
67529;DHT22;54366;51.980;5.856;2024-01-11T07:23:59;-3.90;68.20
67529;DHT22;54366;51.980;5.856;2024-01-11T07:26:26;-3.90;68.30
67529;DHT22;54366;51.980;5.856;2024-01-11T07:28:53;-3.80;68.30
67529;DHT22;54366;51.980;5.856;2024-01-11T07:31:22;-3.80;68.20
67529;DHT22;54366;51.980;5.856;2024-01-11T07:33:49;-3.80;68.40
67529;DHT22;54366;51.980;5.856;2024-01-11T07:36:15;-3.80;68.50
67529;DHT22;54366;51.980;5.856;2024-01-11T07:38:41;-3.90;68.70
67529;DHT22;54366;51.980;5.856;2024-01-11T07:41:08;-3.80;68.90
67529;DHT22;54366;51.980;5.856;2024-01-11T07:43:34;-3.80;68.60
67529;DHT22;54366;51.980;5.856;2024-01-11T07:46:02;-3.90;68.40
67529;DHT22;54366;51.980;5.856;2024-01-11T07:48:29;-3.90;68.30
67529;DHT22;54366;51.980;5.856;2024-01-11T07:50:56;-3.90;68.70
67529;DHT22;54366;51.980;5.856;2024-01-11T07:53:22;-3.90;68.90
67529;DHT22;54366;51.980;5.856;2024-01-11T07:55:49;-3.90;69.10
67529;DHT22;54366;51.980;5.856;2024-01-11T07:58:15;-3.80;68.80
67529;DHT22;54366;51.980;5.856;2024-01-11T08:00:42;-3.90;68.70
67529;DHT22;54366;51.980;5.856;2024-01-11T08:03:08;-3.90;68.70
67529;DHT22;54366;51.980;5.856;2024-01-11T08:05:35;-3.80;68.90
67529;DHT22;54366;51.980;5.856;2024-01-11T08:08:02;-3.80;69.70
67529;DHT22;54366;51.980;5.856;2024-01-11T08:10:29;-3.80;69.20
67529;DHT22;54366;51.980;5.856;2024-01-11T08:13:00;-3.80;68.90
67529;DHT22;54366;51.980;5.856;2024-01-11T08:15:26;-3.80;68.90
67529;DHT22;54366;51.980;5.856;2024-01-11T08:17:53;-3.80;68.60
67529;DHT22;54366;51.980;5.856;2024-01-11T08:20:19;-3.80;68.50
67529;DHT22;54366;51.980;5.856;2024-01-11T08:22:45;-3.70;68.80
67529;DHT22;54366;51.980;5.856;2024-01-11T08:25:13;-3.80;69.10
67529;DHT22;54366;51.980;5.856;2024-01-11T08:27:39;-3.80;68.80
67529;DHT22;54366;51.980;5.856;2024-01-11T08:30:06;-3.80;68.50
67529;DHT22;54366;51.980;5.856;2024-01-11T08:32:34;-3.80;68.60
67529;DHT22;54366;51.980;5.856;2024-01-11T08:35:09;-3.70;68.40
67529;DHT22;54366;51.980;5.856;2024-01-11T08:37:36;-3.80;68.40
67529;DHT22;54366;51.980;5.856;2024-01-11T08:40:02;-3.80;68.40
67529;DHT22;54366;51.980;5.856;2024-01-11T08:42:31;-3.80;68.50
67529;DHT22;54366;51.980;5.856;2024-01-11T08:44:57;-3.80;68.60
67529;DHT22;54366;51.980;5.856;2024-01-11T08:47:24;-3.70;68.50
67529;DHT22;54366;51.980;5.856;2024-01-11T08:49:50;-3.70;68.70
67529;DHT22;54366;51.980;5.856;2024-01-11T08:52:16;-3.60;68.80
67529;DHT22;54366;51.980;5.856;2024-01-11T08:54:43;-3.50;68.70
67529;DHT22;54366;51.980;5.856;2024-01-11T08:57:09;-3.50;68.50
67529;DHT22;54366;51.980;5.856;2024-01-11T08:59:35;-3.40;68.30
67529;DHT22;54366;51.980;5.856;2024-01-11T09:02:01;-3.30;68.80
67529;DHT22;54366;51.980;5.856;2024-01-11T09:04:28;-3.20;68.10
67529;DHT22;54366;51.980;5.856;2024-01-11T09:06:54;-3.20;68.00
67529;DHT22;54366;51.980;5.856;2024-01-11T09:09:22;-3.10;68.00
67529;DHT22;54366;51.980;5.856;2024-01-11T09:11:48;-3.10;68.00
67529;DHT22;54366;51.980;5.856;2024-01-11T09:14:15;-3.00;67.70
67529;DHT22;54366;51.980;5.856;2024-01-11T09:16:42;-3.00;67.60
67529;DHT22;54366;51.980;5.856;2024-01-11T09:19:08;-2.90;67.70
67529;DHT22;54366;51.980;5.856;2024-01-11T09:21:34;-2.90;67.60
67529;DHT22;54366;51.980;5.856;2024-01-11T09:24:01;-2.80;67.50
67529;DHT22;54366;51.980;5.856;2024-01-11T09:26:27;-2.80;67.50
67529;DHT22;54366;51.980;5.856;2024-01-11T09:28:53;-2.70;67.60
67529;DHT22;54366;51.980;5.856;2024-01-11T09:31:19;-2.70;67.60
67529;DHT22;54366;51.980;5.856;2024-01-11T09:33:46;-2.70;67.50
67529;DHT22;54366;51.980;5.856;2024-01-11T09:36:13;-2.60;67.60
67529;DHT22;54366;51.980;5.856;2024-01-11T09:38:39;-2.60;67.50
67529;DHT22;54366;51.980;5.856;2024-01-11T09:41:10;-2.60;67.60
67529;DHT22;54366;51.980;5.856;2024-01-11T09:43:37;-2.60;67.60
67529;DHT22;54366;51.980;5.856;2024-01-11T09:46:04;-2.50;67.60
67529;DHT22;54366;51.980;5.856;2024-01-11T09:48:35;-2.40;67.80
67529;DHT22;54366;51.980;5.856;2024-01-11T09:51:08;-2.40;67.60
67529;DHT22;54366;51.980;5.856;2024-01-11T09:53:35;-2.40;67.90
67529;DHT22;54366;51.980;5.856;2024-01-11T09:56:07;-2.30;67.90
67529;DHT22;54366;51.980;5.856;2024-01-11T09:58:35;-2.30;67.60
67529;DHT22;54366;51.980;5.856;2024-01-11T10:01:09;-2.20;67.60
67529;DHT22;54366;51.980;5.856;2024-01-11T10:03:35;-2.10;68.10
67529;DHT22;54366;51.980;5.856;2024-01-11T10:06:03;-2.00;68.60
67529;DHT22;54366;51.980;5.856;2024-01-11T10:08:31;-2.00;67.80
67529;DHT22;54366;51.980;5.856;2024-01-11T10:10:58;-2.00;67.60
67529;DHT22;54366;51.980;5.856;2024-01-11T10:13:29;-1.80;67.80
67529;DHT22;54366;51.980;5.856;2024-01-11T10:16:09;-1.80;67.70
67529;DHT22;54366;51.980;5.856;2024-01-11T10:18:36;-1.80;67.50
67529;DHT22;54366;51.980;5.856;2024-01-11T10:21:03;-1.70;67.70
67529;DHT22;54366;51.980;5.856;2024-01-11T10:23:29;-1.60;67.60
67529;DHT22;54366;51.980;5.856;2024-01-11T10:26:00;-1.60;67.90
67529;DHT22;54366;51.980;5.856;2024-01-11T10:28:27;-1.50;68.20
67529;DHT22;54366;51.980;5.856;2024-01-11T10:30:54;-1.50;68.90
67529;DHT22;54366;51.980;5.856;2024-01-11T10:33:22;-1.50;70.40
67529;DHT22;54366;51.980;5.856;2024-01-11T10:35:49;-1.40;70.80
67529;DHT22;54366;51.980;5.856;2024-01-11T10:38:17;-1.40;70.70
67529;DHT22;54366;51.980;5.856;2024-01-11T10:40:44;-1.40;71.30
67529;DHT22;54366;51.980;5.856;2024-01-11T10:43:12;-1.30;71.50
67529;DHT22;54366;51.980;5.856;2024-01-11T10:45:41;-1.20;72.60
67529;DHT22;54366;51.980;5.856;2024-01-11T10:48:15;-1.20;71.90
67529;DHT22;54366;51.980;5.856;2024-01-11T10:50:43;-1.10;73.50
67529;DHT22;54366;51.980;5.856;2024-01-11T10:53:43;-1.10;73.90
67529;DHT22;54366;51.980;5.856;2024-01-11T10:56:12;-1.00;74.40
67529;DHT22;54366;51.980;5.856;2024-01-11T10:58:40;-0.90;75.00
67529;DHT22;54366;51.980;5.856;2024-01-11T11:01:11;-0.80;76.00
67529;DHT22;54366;51.980;5.856;2024-01-11T11:03:39;-0.70;76.10
67529;DHT22;54366;51.980;5.856;2024-01-11T11:06:07;-0.60;76.20
67529;DHT22;54366;51.980;5.856;2024-01-11T11:08:34;-0.60;77.30
67529;DHT22;54366;51.980;5.856;2024-01-11T11:11:03;-0.60;77.40
67529;DHT22;54366;51.980;5.856;2024-01-11T11:13:34;-0.60;77.70
67529;DHT22;54366;51.980;5.856;2024-01-11T11:16:03;-0.60;77.90
67529;DHT22;54366;51.980;5.856;2024-01-11T11:18:30;-0.60;77.90
67529;DHT22;54366;51.980;5.856;2024-01-11T11:20:57;-0.60;77.80
67529;DHT22;54366;51.980;5.856;2024-01-11T11:23:23;-0.60;78.20
67529;DHT22;54366;51.980;5.856;2024-01-11T11:25:54;-0.50;79.00
67529;DHT22;54366;51.980;5.856;2024-01-11T11:28:22;-0.50;78.10
67529;DHT22;54366;51.980;5.856;2024-01-11T11:30:49;-0.40;78.30
67529;DHT22;54366;51.980;5.856;2024-01-11T11:33:23;-0.40;78.30
67529;DHT22;54366;51.980;5.856;2024-01-11T11:35:53;-0.30;78.10
67529;DHT22;54366;51.980;5.856;2024-01-11T11:38:24;-0.30;78.50
67529;DHT22;54366;51.980;5.856;2024-01-11T11:40:53;-0.30;78.70
67529;DHT22;54366;51.980;5.856;2024-01-11T11:43:21;-0.20;78.30
67529;DHT22;54366;51.980;5.856;2024-01-11T11:45:48;-0.10;77.70
67529;DHT22;54366;51.980;5.856;2024-01-11T11:48:50;-0.10;77.10
67529;DHT22;54366;51.980;5.856;2024-01-11T11:51:18;0.00;77.10
67529;DHT22;54366;51.980;5.856;2024-01-11T11:53:49;0.10;76.90
67529;DHT22;54366;51.980;5.856;2024-01-11T11:56:22;0.10;76.70
67529;DHT22;54366;51.980;5.856;2024-01-11T11:58:49;0.10;76.50
67529;DHT22;54366;51.980;5.856;2024-01-11T12:01:18;0.20;76.20
67529;DHT22;54366;51.980;5.856;2024-01-11T12:03:45;0.20;78.30
67529;DHT22;54366;51.980;5.856;2024-01-11T12:06:21;0.20;77.60
67529;DHT22;54366;51.980;5.856;2024-01-11T12:08:53;0.20;77.80
67529;DHT22;54366;51.980;5.856;2024-01-11T12:11:20;0.30;77.30
67529;DHT22;54366;51.980;5.856;2024-01-11T12:13:48;0.30;77.30
67529;DHT22;54366;51.980;5.856;2024-01-11T12:16:15;0.40;76.80
67529;DHT22;54366;51.980;5.856;2024-01-11T12:18:41;0.50;76.50
67529;DHT22;54366;51.980;5.856;2024-01-11T12:21:08;0.40;76.30
67529;DHT22;54366;51.980;5.856;2024-01-11T12:23:36;0.50;76.10
67529;DHT22;54366;51.980;5.856;2024-01-11T12:26:06;0.60;76.10
67529;DHT22;54366;51.980;5.856;2024-01-11T12:28:34;0.60;75.90
67529;DHT22;54366;51.980;5.856;2024-01-11T12:31:00;0.70;75.70
67529;DHT22;54366;51.980;5.856;2024-01-11T12:33:27;0.70;75.50
67529;DHT22;54366;51.980;5.856;2024-01-11T12:35:54;0.80;75.60
67529;DHT22;54366;51.980;5.856;2024-01-11T12:38:20;0.80;75.70
67529;DHT22;54366;51.980;5.856;2024-01-11T12:40:47;0.80;75.40
67529;DHT22;54366;51.980;5.856;2024-01-11T12:43:14;0.90;75.40
67529;DHT22;54366;51.980;5.856;2024-01-11T12:45:41;0.90;75.40
67529;DHT22;54366;51.980;5.856;2024-01-11T12:48:08;1.00;75.20
67529;DHT22;54366;51.980;5.856;2024-01-11T12:50:35;1.00;75.10
67529;DHT22;54366;51.980;5.856;2024-01-11T12:53:14;1.00;75.10
67529;DHT22;54366;51.980;5.856;2024-01-11T12:55:47;1.00;75.10
67529;DHT22;54366;51.980;5.856;2024-01-11T12:58:19;1.10;75.10
67529;DHT22;54366;51.980;5.856;2024-01-11T13:00:47;1.10;75.10
67529;DHT22;54366;51.980;5.856;2024-01-11T13:03:14;1.20;75.10
67529;DHT22;54366;51.980;5.856;2024-01-11T13:05:40;1.20;75.10
67529;DHT22;54366;51.980;5.856;2024-01-11T13:08:08;1.20;74.90
67529;DHT22;54366;51.980;5.856;2024-01-11T13:10:35;1.20;75.10
67529;DHT22;54366;51.980;5.856;2024-01-11T13:13:03;1.30;75.10
67529;DHT22;54366;51.980;5.856;2024-01-11T13:15:29;1.30;75.20
67529;DHT22;54366;51.980;5.856;2024-01-11T13:18:00;1.40;75.50
67529;DHT22;54366;51.980;5.856;2024-01-11T13:20:28;1.40;75.40
67529;DHT22;54366;51.980;5.856;2024-01-11T13:23:19;1.40;75.50
67529;DHT22;54366;51.980;5.856;2024-01-11T13:25:47;1.40;75.50
67529;DHT22;54366;51.980;5.856;2024-01-11T13:28:15;1.50;75.30
67529;DHT22;54366;51.980;5.856;2024-01-11T13:30:43;1.50;75.30
67529;DHT22;54366;51.980;5.856;2024-01-11T13:33:10;1.50;75.30
67529;DHT22;54366;51.980;5.856;2024-01-11T13:35:38;1.50;75.10
67529;DHT22;54366;51.980;5.856;2024-01-11T13:38:04;1.60;75.20
67529;DHT22;54366;51.980;5.856;2024-01-11T13:40:31;1.60;75.20
67529;DHT22;54366;51.980;5.856;2024-01-11T13:42:58;1.60;75.10
67529;DHT22;54366;51.980;5.856;2024-01-11T13:45:25;1.60;74.90
67529;DHT22;54366;51.980;5.856;2024-01-11T13:47:52;1.70;75.00
67529;DHT22;54366;51.980;5.856;2024-01-11T13:50:22;1.70;75.10
67529;DHT22;54366;51.980;5.856;2024-01-11T13:52:52;1.70;75.20
67529;DHT22;54366;51.980;5.856;2024-01-11T13:55:19;1.70;75.10
67529;DHT22;54366;51.980;5.856;2024-01-11T13:57:48;1.70;75.10
67529;DHT22;54366;51.980;5.856;2024-01-11T14:00:15;1.80;75.30
67529;DHT22;54366;51.980;5.856;2024-01-11T14:02:44;1.70;75.40
67529;DHT22;54366;51.980;5.856;2024-01-11T14:05:11;1.80;75.60
67529;DHT22;54366;51.980;5.856;2024-01-11T14:07:40;1.80;75.70
67529;DHT22;54366;51.980;5.856;2024-01-11T14:10:07;1.80;75.80
67529;DHT22;54366;51.980;5.856;2024-01-11T14:12:38;1.80;75.70
67529;DHT22;54366;51.980;5.856;2024-01-11T14:15:05;1.80;75.50
67529;DHT22;54366;51.980;5.856;2024-01-11T14:17:32;1.80;75.50
67529;DHT22;54366;51.980;5.856;2024-01-11T14:20:00;1.90;75.60
67529;DHT22;54366;51.980;5.856;2024-01-11T14:22:27;1.80;75.60
67529;DHT22;54366;51.980;5.856;2024-01-11T14:24:53;1.90;75.60
67529;DHT22;54366;51.980;5.856;2024-01-11T14:27:20;1.90;75.70
67529;DHT22;54366;51.980;5.856;2024-01-11T14:29:47;1.90;75.60
67529;DHT22;54366;51.980;5.856;2024-01-11T14:32:14;1.90;75.50
67529;DHT22;54366;51.980;5.856;2024-01-11T14:34:44;1.90;75.50
67529;DHT22;54366;51.980;5.856;2024-01-11T14:37:12;1.90;75.70
67529;DHT22;54366;51.980;5.856;2024-01-11T14:39:38;1.90;75.90
67529;DHT22;54366;51.980;5.856;2024-01-11T14:42:05;1.90;75.90
67529;DHT22;54366;51.980;5.856;2024-01-11T14:44:31;1.90;75.90
67529;DHT22;54366;51.980;5.856;2024-01-11T14:46:58;1.90;75.90
67529;DHT22;54366;51.980;5.856;2024-01-11T14:49:24;1.90;76.00
67529;DHT22;54366;51.980;5.856;2024-01-11T14:51:51;1.90;75.90
67529;DHT22;54366;51.980;5.856;2024-01-11T14:54:18;1.90;75.90
67529;DHT22;54366;51.980;5.856;2024-01-11T14:56:46;1.90;75.90
67529;DHT22;54366;51.980;5.856;2024-01-11T14:59:13;1.80;76.00
67529;DHT22;54366;51.980;5.856;2024-01-11T15:01:40;1.80;76.00
67529;DHT22;54366;51.980;5.856;2024-01-11T15:04:06;1.80;76.00
67529;DHT22;54366;51.980;5.856;2024-01-11T15:06:33;1.80;76.00
67529;DHT22;54366;51.980;5.856;2024-01-11T15:08:59;1.80;76.10
67529;DHT22;54366;51.980;5.856;2024-01-11T15:11:26;1.80;76.10
67529;DHT22;54366;51.980;5.856;2024-01-11T15:13:53;1.80;76.20
67529;DHT22;54366;51.980;5.856;2024-01-11T15:16:19;1.90;76.10
67529;DHT22;54366;51.980;5.856;2024-01-11T15:18:46;1.90;76.30
67529;DHT22;54366;51.980;5.856;2024-01-11T15:21:12;1.80;76.40
67529;DHT22;54366;51.980;5.856;2024-01-11T15:23:39;1.80;76.40
67529;DHT22;54366;51.980;5.856;2024-01-11T15:26:06;1.80;76.60
67529;DHT22;54366;51.980;5.856;2024-01-11T15:28:32;1.80;76.80
67529;DHT22;54366;51.980;5.856;2024-01-11T15:30:59;1.90;76.70
67529;DHT22;54366;51.980;5.856;2024-01-11T15:33:25;1.80;76.50
67529;DHT22;54366;51.980;5.856;2024-01-11T15:35:51;1.90;76.50